Archival Weather

Chicago O'Hare International

Chicago, Illinois (KORD)

Report from: Friday, December 9, 2022 7:26 AM CST
Current time: Friday, June 21, 2024 6:55 PM CDT

Current weather – Weather history – Daily summaries
Weather forecast

Present weatherLight snow, mist
Temperature1.7°C (35.1°F)
Wind chill-2.9°C (26.8°F)
Dew point-0.6°C (30.9°F)
Winds 10 kts (5.1 m/s, 11.5 mph) East (90°)
Visibility1 mi. (1.6 km)
Clouds Few clouds 800 ft. (244 m)
Ceiling: Overcast 1,200 ft. (366 m)
Altimeter30.17 in.Hg (1022 mB)
Precipitiation0.03 in. (1 mm)
Precip. events Rain ended 12:56 PM
Snow pellets ended 1:25 PM
Relative humidity85 %
Density altitude-1,817 ft. (-554 m)
Remarks Automated weather observing station with precipitation discriminator
Flight conditions Instrument Meteorological Conditions
Raw dataKORD 091326Z 09010KT 1SM R10L/P6000FT -SN BR FEW008 OVC012 02/M01 A3017 RMK AO2 RAE1256GSE25 P0003 T00171006
An error has occurred. This application may no longer respond until reloaded. Reload 🗙